Time;durP1;ratioP1;P1;durP2;ratioP2;P2;SDS_P1;SDS_P2;PMS_P1;PMS_P2;Temp;Humidity;BMP_temperature;BMP_pressure;BME280_temperature;BME280_humidity;BME280_pressure;Samples;Min_cycle;Max_cycle;Signal;HPM_P1;HPM_P2
2022/04/02 00:02:00;;;;;;;;;;;;;;;;;;4969674;28;20029;-64
2022/04/02 00:04:26;;;;;;;;;;;;;;;;;;4964951;28;19931;-65
2022/04/02 00:06:53;;;;;;;;;;;;;;;;;;4966932;28;20169;-64
2022/04/02 00:09:20;;;;;;;;;;;;;;;;;;4967611;28;20406;-64
2022/04/02 00:11:46;;;;;;;;;;;;;;;;;;4974041;28;19979;-64
2022/04/02 00:14:12;;;;;;;;;;;;;;;;;;4974497;28;19926;-63
2022/04/02 00:16:38;;;;;;;;;;;;;;;;;;4971458;28;20310;-62
2022/04/02 00:19:04;;;;;;;;;;;;;;;;;;4972161;28;19935;-61
2022/04/02 00:21:31;;;;;;;;;;;;;;;;;;4974348;28;19937;-62
2022/04/02 00:23:57;;;;;;;;;;;;;;;;;;4974001;28;19938;-62
2022/04/02 00:26:24;;;;;;;;;;;;;;;;;;4962373;28;20268;-63
2022/04/02 00:28:50;;;;;;;;;;;;;;;;;;4987136;28;19938;-64
2022/04/02 00:31:16;;;;;;;;;;;;;;;;;;4973962;28;19931;-63
2022/04/02 00:33:43;;;;;;;;;;;;;;;;;;4981823;28;20307;-64
2022/04/02 00:36:09;;;;;;;;;;;;;;;;;;4974574;28;20396;-63
2022/04/02 00:38:35;;;;;;;;;;;;;;;;;;4973951;28;20052;-64
2022/04/02 00:41:02;;;;;;;;;;;;;;;;;;4973558;28;19926;-65
2022/04/02 00:43:28;;;;;;;;;;;;;;;;;;4972993;28;19926;-64
2022/04/02 00:45:54;;;;;;;;;;;;;;;;;;4966554;28;20030;-65
2022/04/02 00:48:20;;;;;;;;;;;;;;;;;;4959975;28;19926;-64
2022/04/02 00:50:46;;;;;;;;;;;;;;;;;;4962174;28;19930;-64
2022/04/02 00:53:12;;;;;;;;;;;;;;;;;;4964031;28;19930;-64
2022/04/02 00:55:39;;;;;;;;;;;;;;;;;;4968764;28;19926;-63
2022/04/02 00:58:05;;;;;;;;;;;;;;;;;;4974325;28;20314;-63
2022/04/02 01:00:31;;;;;;;;;;;;;;;;;;4973895;28;19950;-63
2022/04/02 01:02:57;;;;;;;;;;;;;;;;;;4972922;28;20642;-63
2022/04/02 01:05:24;;;;;;;;;;;;;;;;;;4970506;28;19941;-63
2022/04/02 01:07:50;;;;;;;;;;;;;;;;;;4960147;28;19930;-65
2022/04/02 01:10:16;;;;;;;;;;;;;;;;;;4972242;28;20410;-64
2022/04/02 01:12:43;;;;;;;;;;;;;;;;;;4973021;28;19926;-64
2022/04/02 01:15:09;;;;;;;;;;;;;;;;;;4965915;28;19981;-64
2022/04/02 01:17:36;;;;;;;;;;;;;;;;;;4963934;28;19933;-64
2022/04/02 01:20:03;;;;;;;;;;;;;;;;;;4953839;28;19933;-64
2022/04/02 01:22:29;;;;;;;;;;;;;;;;;;4955042;28;19926;-64
2022/04/02 01:24:55;;;;;;;;;;;;;;;;;;4969390;28;20383;-64
2022/04/02 01:27:21;;;;;;;;;;;;;;;;;;4969132;28;19941;-64
2022/04/02 01:29:47;;;;;;;;;;;;;;;;;;4967197;28;19949;-64
2022/04/02 01:32:13;;;;;;;;;;;;;;;;;;4971725;28;19926;-64
2022/04/02 01:34:40;;;;;;;;;;;;;;;;;;4970954;28;19930;-64
2022/04/02 01:37:06;;;;;;;;;;;;;;;;;;4970005;28;19935;-64
2022/04/02 01:39:32;;;;;;;;;;;;;;;;;;4971302;28;19973;-64
2022/04/02 01:42:05;;;;;;;;;;;;;;;;;;4956275;28;20407;-63
2022/04/02 01:44:31;;;;;;;;;;;;;;;;;;4966488;28;19933;-64
2022/04/02 01:46:57;;;;;;;;;;;;;;;;;;4968010;28;20298;-64
2022/04/02 01:49:23;;;;;;;;;;;;;;;;;;4965768;28;19930;-63
2022/04/02 01:51:49;;;;;;;;;;;;;;;;;;4952762;28;19926;-63
2022/04/02 01:54:17;;;;;;;;;;;;;;;;;;4964822;28;19926;-63
2022/04/02 01:56:43;;;;;;;;;;;;;;;;;;4969132;28;19926;-63
2022/04/02 01:59:09;;;;;;;;;;;;;;;;;;4964926;28;19957;-63
2022/04/02 02:01:35;;;;;;;;;;;;;;;;;;4965553;28;20315;-63
2022/04/02 02:04:01;;;;;;;;;;;;;;;;;;4966196;28;19927;-63
2022/04/02 02:06:28;;;;;;;;;;;;;;;;;;4964840;28;19926;-63
2022/04/02 02:08:54;;;;;;;;;;;;;;;;;;4965884;28;19934;-63
2022/04/02 02:11:21;;;;;;;;;;;;;;;;;;4967996;28;20374;-63
2022/04/02 02:13:47;;;;;;;;;;;;;;;;;;4955164;28;19981;-63
2022/04/02 02:16:13;;;;;;;;;;;;;;;;;;4967663;28;20375;-63
2022/04/02 02:18:39;;;;;;;;;;;;;;;;;;4962541;28;20295;-63
2022/04/02 02:21:05;;;;;;;;;;;;;;;;;;4952855;28;19926;-62
2022/04/02 02:23:32;;;;;;;;;;;;;;;;;;4955095;28;19926;-62
2022/04/02 02:25:58;;;;;;;;;;;;;;;;;;4971566;28;19927;-63
2022/04/02 02:28:24;;;;;;;;;;;;;;;;;;4965691;28;19933;-63
2022/04/02 02:30:50;;;;;;;;;;;;;;;;;;4970872;28;20402;-63
2022/04/02 02:36:00;;;;;;;;;;;;;;;;;;4968450;28;19936;-64
2022/04/02 02:38:27;;;;;;;;;;;;;;;;;;4959731;28;19926;-63
2022/04/02 02:40:53;;;;;;;;;;;;;;;;;;4963538;28;19930;-64
2022/04/02 02:43:22;;;;;;;;;;;;;;;;;;4973127;28;19973;-64
2022/04/02 02:45:48;;;;;;;;;;;;;;;;;;4972389;28;19926;-64
2022/04/02 02:48:14;;;;;;;;;;;;;;;;;;4968346;28;20367;-64
2022/04/02 02:50:42;;;;;;;;;;;;;;;;;;4973059;28;20441;-69
2022/04/02 02:53:08;;;;;;;;;;;;;;;;;;4956132;28;20056;-65
2022/04/02 02:55:34;;;;;;;;;;;;;;;;;;4969814;28;19930;-65
2022/04/02 02:58:01;;;;;;;;;;;;;;;;;;4972870;28;19942;-66
2022/04/02 03:00:27;;;;;;;;;;;;;;;;;;4965689;28;20275;-65
2022/04/02 03:02:53;;;;;;;;;;;;;;;;;;4977359;28;20280;-64
2022/04/02 03:05:20;;;;;;;;;;;;;;;;;;4966422;28;19926;-64
2022/04/02 03:07:49;;;;;;;;;;;;;;;;;;4972764;28;19926;-64
2022/04/02 03:10:15;;;;;;;;;;;;;;;;;;4974317;28;19997;-64
2022/04/02 03:12:42;;;;;;;;;;;;;;;;;;4962055;28;19930;-65
2022/04/02 03:15:08;;;;;;;;;;;;;;;;;;4969843;28;19938;-65
2022/04/02 03:17:34;;;;;;;;;;;;;;;;;;4988657;28;19926;-64
2022/04/02 03:20:00;;;;;;;;;;;;;;;;;;4967120;28;19933;-64
2022/04/02 03:22:27;;;;;;;;;;;;;;;;;;4965944;28;19926;-65
2022/04/02 03:24:53;;;;;;;;;;;;;;;;;;4972561;28;19934;-64
2022/04/02 03:27:19;;;;;;;;;;;;;;;;;;4966899;28;19930;-64
2022/04/02 03:29:45;;;;;;;;;;;;;;;;;;4968793;28;19930;-64
2022/04/02 03:32:12;;;;;;;;;;;;;;;;;;4954674;28;19934;-64
2022/04/02 03:34:39;;;;;;;;;;;;;;;;;;4956155;28;19949;-64
2022/04/02 03:37:05;;;;;;;;;;;;;;;;;;4973806;28;19977;-65
2022/04/02 03:39:32;;;;;;;;;;;;;;;;;;4957156;28;19926;-66
2022/04/02 03:41:58;;;;;;;;;;;;;;;;;;4973903;28;19934;-68
2022/04/02 03:44:24;;;;;;;;;;;;;;;;;;4955380;28;19934;-66
2022/04/02 03:49:34;;;;;;;;;;;;;;;;;;4967632;28;19924;-64
2022/04/02 03:52:00;;;;;;;;;;;;;;;;;;4968416;28;19933;-64
2022/04/02 03:54:26;;;;;;;;;;;;;;;;;;4973869;28;20143;-65
2022/04/02 03:56:52;;;;;;;;;;;;;;;;;;4970308;28;19937;-65
2022/04/02 03:59:18;;;;;;;;;;;;;;;;;;4971334;28;19930;-65
2022/04/02 04:01:44;;;;;;;;;;;;;;;;;;4966976;28;19969;-65
2022/04/02 04:04:10;;;;;;;;;;;;;;;;;;4983665;28;19937;-67
2022/04/02 04:06:37;;;;;;;;;;;;;;;;;;4984772;28;19971;-66
2022/04/02 04:09:03;;;;;;;;;;;;;;;;;;4981683;28;19930;-66
2022/04/02 04:11:30;;;;;;;;;;;;;;;;;;4980269;28;19937;-66
2022/04/02 04:13:56;;;;;;;;;;;;;;;;;;4970589;28;19937;-67
2022/04/02 04:16:23;;;;;;;;;;;;;;;;;;4969981;28;20013;-67
2022/04/02 04:18:49;;;;;;;;;;;;;;;;;;4961124;28;19980;-64
2022/04/02 04:21:15;;;;;;;;;;;;;;;;;;4960106;28;19933;-64
2022/04/02 04:23:42;;;;;;;;;;;;;;;;;;4954352;28;19938;-64
2022/04/02 04:26:08;;;;;;;;;;;;;;;;;;4962137;28;19957;-61
2022/04/02 04:28:34;;;;;;;;;;;;;;;;;;4966435;28;19933;-65
2022/04/02 04:31:01;;;;;;;;;;;;;;;;;;4982674;28;19934;-68
2022/04/02 04:33:27;;;;;;;;;;;;;;;;;;4983877;28;20368;-67
2022/04/02 04:35:53;;;;;;;;;;;;;;;;;;4982990;28;20005;-69
2022/04/02 04:38:19;;;;;;;;;;;;;;;;;;4975822;28;19926;-67
2022/04/02 04:40:45;;;;;;;;;;;;;;;;;;4974575;28;20024;-67
2022/04/02 04:43:11;;;;;;;;;;;;;;;;;;4973985;28;19926;-67
2022/04/02 04:45:38;;;;;;;;;;;;;;;;;;4968526;28;19950;-67
2022/04/02 04:48:04;;;;;;;;;;;;;;;;;;4972773;28;19961;-67
2022/04/02 04:50:30;;;;;;;;;;;;;;;;;;4975502;28;19937;-67
2022/04/02 04:52:56;;;;;;;;;;;;;;;;;;4972583;28;19934;-67
2022/04/02 04:55:23;;;;;;;;;;;;;;;;;;4967929;28;19927;-67
2022/04/02 04:57:49;;;;;;;;;;;;;;;;;;4971788;28;19930;-67
2022/04/02 05:00:15;;;;;;;;;;;;;;;;;;4955126;28;19934;-67
2022/04/02 05:02:44;;;;;;;;;;;;;;;;;;4960760;28;19969;-67
2022/04/02 05:05:12;;;;;;;;;;;;;;;;;;4967887;28;19926;-61
2022/04/02 05:07:38;;;;;;;;;;;;;;;;;;4968845;28;19954;-66
2022/04/02 05:10:04;;;;;;;;;;;;;;;;;;4967270;28;19933;-67
2022/04/02 05:12:30;;;;;;;;;;;;;;;;;;4971993;28;19930;-67
2022/04/02 05:14:56;;;;;;;;;;;;;;;;;;4958998;28;19926;-66
2022/04/02 05:17:22;;;;;;;;;;;;;;;;;;4971847;28;19933;-67
2022/04/02 05:19:49;;;;;;;;;;;;;;;;;;4965275;28;19937;-66
2022/04/02 05:22:15;;;;;;;;;;;;;;;;;;4979885;28;19927;-67
2022/04/02 05:24:41;;;;;;;;;;;;;;;;;;4975912;28;19926;-66
2022/04/02 05:27:07;;;;;;;;;;;;;;;;;;4981032;28;19926;-65
2022/04/02 05:29:33;;;;;;;;;;;;;;;;;;4971059;28;19934;-65
2022/04/02 05:31:59;;;;;;;;;;;;;;;;;;4972401;28;19926;-66
2022/04/02 05:34:26;;;;;;;;;;;;;;;;;;4972841;28;19949;-65
2022/04/02 05:36:52;;;;;;;;;;;;;;;;;;4970992;28;19926;-66
2022/04/02 05:39:18;;;;;;;;;;;;;;;;;;4970537;28;20490;-66
2022/04/02 05:41:46;;;;;;;;;;;;;;;;;;4956829;28;20398;-65
2022/04/02 05:44:12;;;;;;;;;;;;;;;;;;4971176;28;19930;-65
2022/04/02 05:46:38;;;;;;;;;;;;;;;;;;4969877;28;19965;-65
2022/04/02 05:49:05;;;;;;;;;;;;;;;;;;4969729;28;20368;-65
2022/04/02 05:51:31;;;;;;;;;;;;;;;;;;4972578;28;19930;-65
2022/04/02 05:53:58;;;;;;;;;;;;;;;;;;4998228;23;19982;-64
2022/04/02 05:56:24;;;;;;;;;;;;;;;;;;5026793;28;19925;-63
2022/04/02 05:58:50;;;;;;;;;;;;;;;;;;5023980;28;19925;-63
2022/04/02 06:01:16;;;;;;;;;;;;;;;;;;5009059;28;19933;-65
2022/04/02 06:03:42;;;;;;;;;;;;;;;;;;5021707;28;20314;-65
2022/04/02 06:06:08;;;;;;;;;;;;;;;;;;5021515;28;20397;-65
2022/04/02 06:08:35;;;;;;;;;;;;;;;;;;5023782;28;19948;-61
2022/04/02 06:11:01;;;;;;;;;;;;;;;;;;5013081;28;19933;-61
2022/04/02 06:13:28;;;;;;;;;;;;;;;;;;5021653;28;19981;-61
2022/04/02 06:15:54;;;;;;;;;;;;;;;;;;5024715;28;19925;-60
2022/04/02 06:18:20;;;;;;;;;;;;;;;;;;5026027;28;19925;-59
2022/04/02 06:20:47;;;;;;;;;;;;;;;;;;5022948;28;19925;-59
2022/04/02 06:23:14;;;;;;;;;;;;;;;;;;5012626;28;20028;-59
2022/04/02 06:25:40;;;;;;;;;;;;;;;;;;5022503;28;19956;-59
2022/04/02 06:28:06;;;;;;;;;;;;;;;;;;5028316;28;19926;-60
2022/04/02 06:30:32;;;;;;;;;;;;;;;;;;5021163;28;20103;-61
2022/04/02 06:33:00;;;;;;;;;;;;;;;;;;5029744;28;20310;-60
2022/04/02 06:35:26;;;;;;;;;;;;;;;;;;5032106;28;19979;-59
2022/04/02 06:37:53;;;;;;;;;;;;;;;;;;5020090;28;19925;-60
2022/04/02 06:40:19;;;;;;;;;;;;;;;;;;5030818;28;19987;-60
2022/04/02 06:42:45;;;;;;;;;;;;;;;;;;5022892;28;19944;-60
2022/04/02 06:45:11;;;;;;;;;;;;;;;;;;5018466;28;19948;-60
2022/04/02 06:47:37;;;;;;;;;;;;;;;;;;5028143;28;19925;-59
2022/04/02 06:50:04;;;;;;;;;;;;;;;;;;5028692;28;19925;-60
2022/04/02 06:52:30;;;;;;;;;;;;;;;;;;5014061;28;19925;-62
2022/04/02 06:54:56;;;;;;;;;;;;;;;;;;5025456;28;19944;-62
2022/04/02 06:57:22;;;;;;;;;;;;;;;;;;5029089;28;19960;-61
2022/04/02 06:59:48;;;;;;;;;;;;;;;;;;5019375;28;20298;-60
2022/04/02 07:02:14;;;;;;;;;;;;;;;;;;5028393;28;19951;-61
2022/04/02 07:04:41;;;;;;;;;;;;;;;;;;5028055;28;19957;-61
2022/04/02 07:07:07;;;;;;;;;;;;;;;;;;5027954;28;19989;-61
2022/04/02 07:09:33;;;;;;;;;;;;;;;;;;5020090;28;19926;-62
2022/04/02 07:11:59;;;;;;;;;;;;;;;;;;5026891;28;19925;-62
2022/04/02 07:14:25;;;;;;;;;;;;;;;;;;5024443;28;20046;-61
2022/04/02 07:16:51;;;;;;;;;;;;;;;;;;5026865;28;19971;-62
2022/04/02 07:19:18;;;;;;;;;;;;;;;;;;5020220;28;20020;-71
2022/04/02 07:21:44;;;;;;;;;;;;;;;;;;5027414;28;19937;-59
2022/04/02 07:24:10;;;;;;;;;;;;;;;;;;5028858;28;19925;-63
2022/04/02 07:26:36;;;;;;;;;;;;;;;;;;5017116;28;19933;-64
2022/04/02 07:29:02;;;;;;;;;;;;;;;;;;5025247;28;19929;-63
2022/04/02 07:31:29;;;;;;;;;;;;;;;;;;5013388;28;19930;-63
2022/04/02 07:33:55;;;;;;;;;;;;;;;;;;5024277;28;20463;-63
2022/04/02 07:36:21;;;;;;;;;;;;;;;;;;5032487;28;19989;-63
2022/04/02 07:38:48;;;;;;;;;;;;;;;;;;5019095;28;20565;-64
2022/04/02 07:41:14;;;;;;;;;;;;;;;;;;5025240;28;19925;-63
2022/04/02 07:43:40;;;;;;;;;;;;;;;;;;5025534;28;19925;-62
2022/04/02 07:46:07;;;;;;;;;;;;;;;;;;5029867;28;19936;-62
2022/04/02 07:48:33;;;;;;;;;;;;;;;;;;5023128;28;19925;-63
2022/04/02 07:50:59;;;;;;;;;;;;;;;;;;5025946;28;19932;-63
2022/04/02 07:53:26;;;;;;;;;;;;;;;;;;5011281;28;19932;-62
2022/04/02 07:55:52;;;;;;;;;;;;;;;;;;5024314;28;20027;-63
2022/04/02 07:58:18;;;;;;;;;;;;;;;;;;5023959;28;20237;-62
2022/04/02 08:00:44;;;;;;;;;;;;;;;;;;5022241;28;19951;-62
2022/04/02 08:03:10;;;;;;;;;;;;;;;;;;5022556;28;19929;-62
2022/04/02 08:05:36;;;;;;;;;;;;;;;;;;5024658;28;19929;-62
2022/04/02 08:08:03;;;;;;;;;;;;;;;;;;5028355;28;19949;-62
2022/04/02 08:10:29;;;;;;;;;;;;;;;;;;5024950;28;19929;-63
2022/04/02 08:12:57;;;;;;;;;;;;;;;;;;5022991;28;19929;-63
2022/04/02 08:15:23;;;;;;;;;;;;;;;;;;5022190;28;20334;-63
2022/04/02 08:17:52;;;;;;;;;;;;;;;;;;5024395;28;19936;-63
2022/04/02 08:20:18;;;;;;;;;;;;;;;;;;5026276;28;19929;-63
2022/04/02 08:22:44;;;;;;;;;;;;;;;;;;5029250;28;19956;-64
2022/04/02 08:25:10;;;;;;;;;;;;;;;;;;5029479;28;19936;-63
2022/04/02 08:27:38;;;;;;;;;;;;;;;;;;5028747;28;19936;-64
2022/04/02 08:30:04;;;;;;;;;;;;;;;;;;5027620;28;20020;-64
2022/04/02 08:32:30;;;;;;;;;;;;;;;;;;5028297;28;19952;-64
2022/04/02 08:34:57;;;;;;;;;;;;;;;;;;5028595;28;20254;-62
2022/04/02 08:37:23;;;;;;;;;;;;;;;;;;5028861;28;20333;-62
2022/04/02 08:39:49;;;;;;;;;;;;;;;;;;5026372;28;20262;-62
2022/04/02 08:42:15;;;;;;;;;;;;;;;;;;5027791;28;20291;-62
2022/04/02 08:44:41;;;;;;;;;;;;;;;;;;5027474;28;19948;-62
2022/04/02 08:47:07;;;;;;;;;;;;;;;;;;5028041;28;19925;-64
2022/04/02 08:49:34;;;;;;;;;;;;;;;;;;5021308;28;19945;-63
2022/04/02 08:52:00;;;;;;;;;;;;;;;;;;5023619;28;19924;-62
2022/04/02 08:54:26;;;;;;;;;;;;;;;;;;5028290;28;19925;-63
2022/04/02 08:56:52;;;;;;;;;;;;;;;;;;5027055;28;19940;-62
2022/04/02 08:59:18;;;;;;;;;;;;;;;;;;5025018;28;19928;-62
2022/04/02 09:01:44;;;;;;;;;;;;;;;;;;5026869;28;20272;-62
2022/04/02 09:04:10;;;;;;;;;;;;;;;;;;5026823;28;20042;-62
2022/04/02 09:06:37;;;;;;;;;;;;;;;;;;5026529;28;20023;-62
2022/04/02 09:09:03;;;;;;;;;;;;;;;;;;5024338;28;20290;-62
2022/04/02 09:11:29;;;;;;;;;;;;;;;;;;5027079;28;19929;-62
2022/04/02 09:13:57;;;;;;;;;;;;;;;;;;5025419;28;20012;-63
2022/04/02 09:16:23;;;;;;;;;;;;;;;;;;5026822;28;20012;-62
2022/04/02 09:18:49;;;;;;;;;;;;;;;;;;5027005;28;19933;-62
2022/04/02 09:21:15;;;;;;;;;;;;;;;;;;5025174;28;19925;-62
2022/04/02 09:23:42;;;;;;;;;;;;;;;;;;5014940;28;20080;-63
2022/04/02 09:26:08;;;;;;;;;;;;;;;;;;5023826;28;19930;-62
2022/04/02 09:28:34;;;;;;;;;;;;;;;;;;5014824;28;19936;-62
2022/04/02 09:31:00;;;;;;;;;;;;;;;;;;4325495;28;10000868;-62
2022/04/02 09:33:26;;;;;;;;;;;;;;;;;;5010012;28;19940;-62
2022/04/02 09:35:53;;;;;;;;;;;;;;;;;;5015457;28;19933;-62
2022/04/02 09:38:19;;;;;;;;;;;;;;;;;;5020839;28;19929;-60
2022/04/02 09:40:45;;;;;;;;;;;;;;;;;;5018615;28;20017;-62
2022/04/02 09:43:11;;;;;;;;;;;;;;;;;;5019667;28;19929;-62
2022/04/02 09:45:37;;;;;;;;;;;;;;;;;;5019278;28;20385;-62
2022/04/02 09:48:03;;;;;;;;;;;;;;;;;;5023002;28;20509;-61
2022/04/02 09:50:30;;;;;;;;;;;;;;;;;;5024383;28;20405;-60
2022/04/02 09:52:56;;;;;;;;;;;;;;;;;;5021793;28;20298;-62
2022/04/02 09:55:22;;;;;;;;;;;;;;;;;;5019687;28;19936;-62
2022/04/02 09:57:48;;;;;;;;;;;;;;;;;;5018565;28;19945;-62
2022/04/02 10:00:16;;;;;;;;;;;;;;;;;;5014916;28;20417;-62
2022/04/02 10:02:42;;;;;;;;;;;;;;;;;;5021086;28;20019;-62
2022/04/02 10:05:08;;;;;;;;;;;;;;;;;;5016492;28;19936;-66
2022/04/02 10:07:35;;;;;;;;;;;;;;;;;;5025902;28;19929;-62
2022/04/02 10:10:01;;;;;;;;;;;;;;;;;;5020893;28;19952;-62
2022/04/02 10:12:27;;;;;;;;;;;;;;;;;;5025666;28;19936;-62
2022/04/02 10:14:53;;;;;;;;;;;;;;;;;;5023720;28;19933;-62
2022/04/02 10:17:19;;;;;;;;;;;;;;;;;;5018379;28;19929;-63
2022/04/02 10:19:46;;;;;;;;;;;;;;;;;;5019384;28;19933;-62
2022/04/02 10:22:12;;;;;;;;;;;;;;;;;;5019633;28;19945;-62
2022/04/02 10:24:38;;;;;;;;;;;;;;;;;;5014640;28;19970;-62
2022/04/02 10:27:04;;;;;;;;;;;;;;;;;;5026073;28;19929;-69
2022/04/02 10:29:30;;;;;;;;;;;;;;;;;;5020084;28;19943;-69
2022/04/02 10:31:56;;;;;;;;;;;;;;;;;;5012184;28;19930;-70
2022/04/02 10:34:22;;;;;;;;;;;;;;;;;;5019700;28;20005;-70
2022/04/02 10:36:49;;;;;;;;;;;;;;;;;;5026268;28;19929;-69
2022/04/02 10:39:15;;;;;;;;;;;;;;;;;;5026481;28;19949;-69
2022/04/02 10:41:41;;;;;;;;;;;;;;;;;;5023658;28;20358;-68
2022/04/02 10:44:07;;;;;;;;;;;;;;;;;;5022527;28;20241;-73
2022/04/02 10:46:34;;;;;;;;;;;;;;;;;;5023191;28;19929;-71
2022/04/02 10:49:00;;;;;;;;;;;;;;;;;;5021334;28;19935;-71
2022/04/02 10:51:26;;;;;;;;;;;;;;;;;;5014364;28;19991;-71
2022/04/02 10:53:53;;;;;;;;;;;;;;;;;;5014400;28;19938;-71
2022/04/02 10:56:19;;;;;;;;;;;;;;;;;;5015677;28;19930;-71
2022/04/02 10:58:45;;;;;;;;;;;;;;;;;;5021481;28;19936;-71
2022/04/02 11:01:13;;;;;;;;;;;;;;;;;;5014696;28;19937;-71
2022/04/02 11:03:40;;;;;;;;;;;;;;;;;;5025554;28;19929;-70
2022/04/02 11:06:06;;;;;;;;;;;;;;;;;;5026596;28;20398;-71
2022/04/02 11:08:32;;;;;;;;;;;;;;;;;;5015651;28;19929;-70
2022/04/02 11:10:58;;;;;;;;;;;;;;;;;;5025738;28;19951;-70
2022/04/02 11:13:24;;;;;;;;;;;;;;;;;;5029472;28;19940;-70
2022/04/02 11:15:51;;;;;;;;;;;;;;;;;;5023308;28;19932;-71
2022/04/02 11:18:17;;;;;;;;;;;;;;;;;;5028895;28;19929;-71
2022/04/02 11:20:43;;;;;;;;;;;;;;;;;;5018006;28;20446;-71
2022/04/02 11:23:09;;;;;;;;;;;;;;;;;;5023740;28;20263;-71
2022/04/02 11:25:36;;;;;;;;;;;;;;;;;;5015384;28;19948;-70
2022/04/02 11:28:02;;;;;;;;;;;;;;;;;;5017626;28;20331;-71
2022/04/02 11:30:28;;;;;;;;;;;;;;;;;;5018041;28;20381;-71
2022/04/02 11:32:54;;;;;;;;;;;;;;;;;;5027711;28;20305;-71
2022/04/02 11:35:20;;;;;;;;;;;;;;;;;;5020030;28;19927;-70
2022/04/02 11:37:46;;;;;;;;;;;;;;;;;;5011714;28;19932;-70
2022/04/02 11:40:12;;;;;;;;;;;;;;;;;;5010710;28;19925;-70
2022/04/02 11:42:39;;;;;;;;;;;;;;;;;;5011583;28;20414;-70
2022/04/02 11:45:05;;;;;;;;;;;;;;;;;;5012153;28;20402;-70
2022/04/02 11:47:32;;;;;;;;;;;;;;;;;;5015174;28;20362;-71
2022/04/02 11:49:58;;;;;;;;;;;;;;;;;;5026421;28;20305;-71
2022/04/02 11:52:24;;;;;;;;;;;;;;;;;;5029481;28;20600;-71
2022/04/02 11:54:50;;;;;;;;;;;;;;;;;;5028775;28;19925;-70
2022/04/02 11:57:17;;;;;;;;;;;;;;;;;;5042078;23;20083;-70
2022/04/02 11:59:43;;;;;;;;;;;;;;;;;;5033272;28;19933;-69
2022/04/02 12:02:09;;;;;;;;;;;;;;;;;;5032080;28;19931;-70
2022/04/02 12:04:36;;;;;;;;;;;;;;;;;;5033104;28;19968;-71
2022/04/02 12:07:03;;;;;;;;;;;;;;;;;;5017417;28;19937;-70
2022/04/02 12:09:29;;;;;;;;;;;;;;;;;;5026332;28;19925;-70
2022/04/02 12:11:55;;;;;;;;;;;;;;;;;;5031814;28;19933;-71
2022/04/02 12:14:21;;;;;;;;;;;;;;;;;;5016903;28;19933;-69
2022/04/02 12:16:47;;;;;;;;;;;;;;;;;;5012162;28;20095;-69
2022/04/02 12:19:14;;;;;;;;;;;;;;;;;;5012720;28;20386;-69
2022/04/02 12:21:40;;;;;;;;;;;;;;;;;;5023350;28;19937;-70
2022/04/02 12:24:06;;;;;;;;;;;;;;;;;;5010747;28;19947;-70
2022/04/02 12:26:32;;;;;;;;;;;;;;;;;;5011102;28;20302;-70
2022/04/02 12:28:58;;;;;;;;;;;;;;;;;;5007798;28;20025;-70
2022/04/02 12:31:27;;;;;;;;;;;;;;;;;;5005658;28;19960;-70
2022/04/02 12:33:53;;;;;;;;;;;;;;;;;;5010804;28;20040;-70
2022/04/02 12:36:19;;;;;;;;;;;;;;;;;;5009839;28;19926;-70
2022/04/02 12:38:46;;;;;;;;;;;;;;;;;;5012225;28;19948;-70
2022/04/02 12:41:12;;;;;;;;;;;;;;;;;;5011993;28;19925;-69
2022/04/02 12:43:38;;;;;;;;;;;;;;;;;;5010984;28;19933;-70
2022/04/02 12:46:04;;;;;;;;;;;;;;;;;;5009004;28;19930;-69
2022/04/02 12:48:30;;;;;;;;;;;;;;;;;;5005587;28;19986;-70
2022/04/02 12:50:57;;;;;;;;;;;;;;;;;;5012187;28;19925;-70
2022/04/02 12:53:24;;;;;;;;;;;;;;;;;;5011757;28;19929;-70
2022/04/02 12:55:50;;;;;;;;;;;;;;;;;;5009733;28;20421;-71
2022/04/02 12:58:16;;;;;;;;;;;;;;;;;;5010079;28;19925;-71
2022/04/02 13:00:43;;;;;;;;;;;;;;;;;;5005119;28;19926;-71
2022/04/02 13:03:09;;;;;;;;;;;;;;;;;;5011059;28;19925;-71
2022/04/02 13:05:44;;;;;;;;;;;;;;;;;;5010259;28;19932;-71
2022/04/02 13:08:10;;;;;;;;;;;;;;;;;;5014407;28;20310;-70
2022/04/02 13:10:36;;;;;;;;;;;;;;;;;;5011174;28;19932;-70
2022/04/02 13:13:02;;;;;;;;;;;;;;;;;;5007034;28;19933;-70
2022/04/02 13:15:28;;;;;;;;;;;;;;;;;;5001960;28;19929;-70
2022/04/02 13:20:34;;;;;;;;;;;;;;;;;;5007240;28;19925;-71
2022/04/02 13:23:01;;;;;;;;;;;;;;;;;;5007850;28;20398;-71
2022/04/02 13:25:28;;;;;;;;;;;;;;;;;;5010038;28;19929;-71
2022/04/02 13:27:54;;;;;;;;;;;;;;;;;;5010068;28;20398;-70
2022/04/02 13:30:20;;;;;;;;;;;;;;;;;;5009952;28;20302;-70
2022/04/02 13:32:47;;;;;;;;;;;;;;;;;;5007164;28;19936;-70
2022/04/02 13:35:15;;;;;;;;;;;;;;;;;;5010478;28;19983;-68
2022/04/02 13:37:41;;;;;;;;;;;;;;;;;;5008608;28;20298;-68
2022/04/02 13:40:07;;;;;;;;;;;;;;;;;;5010138;28;19932;-69
2022/04/02 13:42:33;;;;;;;;;;;;;;;;;;5008610;28;19952;-68
2022/04/02 13:45:00;;;;;;;;;;;;;;;;;;5009514;28;19929;-68
2022/04/02 13:47:27;;;;;;;;;;;;;;;;;;5009249;28;19926;-68
2022/04/02 13:49:54;;;;;;;;;;;;;;;;;;5009471;28;20298;-68
2022/04/02 13:52:20;;;;;;;;;;;;;;;;;;5008337;28;19925;-69
2022/04/02 13:54:46;;;;;;;;;;;;;;;;;;5008593;28;20359;-68
2022/04/02 13:57:12;;;;;;;;;;;;;;;;;;5013212;28;20281;-68
2022/04/02 13:59:39;;;;;;;;;;;;;;;;;;5012758;28;20398;-68
2022/04/02 14:02:05;;;;;;;;;;;;;;;;;;5009509;28;19931;-69
2022/04/02 14:04:31;;;;;;;;;;;;;;;;;;5010828;28;20389;-68
2022/04/02 14:06:57;;;;;;;;;;;;;;;;;;5007778;28;21575;-69
2022/04/02 14:09:23;;;;;;;;;;;;;;;;;;5011419;28;19929;-68
2022/04/02 14:11:49;;;;;;;;;;;;;;;;;;5010764;28;19933;-69
2022/04/02 14:14:15;;;;;;;;;;;;;;;;;;5010339;28;19936;-70
2022/04/02 14:16:42;;;;;;;;;;;;;;;;;;5012611;28;20383;-70
2022/04/02 14:19:08;;;;;;;;;;;;;;;;;;5014201;28;19948;-70
2022/04/02 14:21:34;;;;;;;;;;;;;;;;;;5016325;28;19934;-71
2022/04/02 14:24:01;;;;;;;;;;;;;;;;;;5015447;28;19930;-71
2022/04/02 14:26:27;;;;;;;;;;;;;;;;;;5016146;28;20018;-71
2022/04/02 14:28:53;;;;;;;;;;;;;;;;;;4318587;28;10000819;-69
2022/04/02 14:31:19;;;;;;;;;;;;;;;;;;5007812;28;19930;-69
2022/04/02 14:33:45;;;;;;;;;;;;;;;;;;5010697;28;19941;-72
2022/04/02 14:36:11;;;;;;;;;;;;;;;;;;5014025;28;20554;-71
2022/04/02 14:38:38;;;;;;;;;;;;;;;;;;5009071;28;19929;-69
2022/04/02 14:41:04;;;;;;;;;;;;;;;;;;5014397;28;19944;-68
2022/04/02 14:43:30;;;;;;;;;;;;;;;;;;5025160;28;19937;-69
2022/04/02 14:45:56;;;;;;;;;;;;;;;;;;5024784;28;19929;-69
2022/04/02 14:48:22;;;;;;;;;;;;;;;;;;5022532;28;19935;-68
2022/04/02 14:50:48;;;;;;;;;;;;;;;;;;5025587;28;19925;-67
2022/04/02 14:53:14;;;;;;;;;;;;;;;;;;5026462;28;19941;-68
2022/04/02 14:55:41;;;;;;;;;;;;;;;;;;5025955;28;19936;-67
2022/04/02 14:58:07;;;;;;;;;;;;;;;;;;5027589;28;19936;-69
2022/04/02 15:00:33;;;;;;;;;;;;;;;;;;5023080;28;19929;-68
2022/04/02 15:02:59;;;;;;;;;;;;;;;;;;5022932;28;19936;-68
2022/04/02 15:05:26;;;;;;;;;;;;;;;;;;5022713;28;19972;-69
2022/04/02 15:07:52;;;;;;;;;;;;;;;;;;5023333;28;19952;-69
2022/04/02 15:10:18;;;;;;;;;;;;;;;;;;5018037;28;19940;-68
2022/04/02 15:12:44;;;;;;;;;;;;;;;;;;5019249;28;19956;-68
2022/04/02 15:15:10;;;;;;;;;;;;;;;;;;5020879;28;19929;-69
2022/04/02 15:17:41;;;;;;;;;;;;;;;;;;5018831;28;20319;-69
2022/04/02 15:20:07;;;;;;;;;;;;;;;;;;5019705;28;19973;-68
2022/04/02 15:22:33;;;;;;;;;;;;;;;;;;5017192;28;19937;-68
2022/04/02 15:25:00;;;;;;;;;;;;;;;;;;5014234;28;19933;-68
2022/04/02 15:27:27;;;;;;;;;;;;;;;;;;5012589;28;19984;-68
2022/04/02 15:29:54;;;;;;;;;;;;;;;;;;5011334;28;19929;-71
2022/04/02 15:32:20;;;;;;;;;;;;;;;;;;5009629;28;19948;-68
2022/04/02 15:34:46;;;;;;;;;;;;;;;;;;5012542;28;19929;-68
2022/04/02 15:37:12;;;;;;;;;;;;;;;;;;5013887;28;19926;-68
2022/04/02 15:39:38;;;;;;;;;;;;;;;;;;5024179;28;20035;-68
2022/04/02 15:42:05;;;;;;;;;;;;;;;;;;5021220;28;19929;-68
2022/04/02 15:44:31;;;;;;;;;;;;;;;;;;5012149;28;19929;-69
2022/04/02 15:46:57;;;;;;;;;;;;;;;;;;5012664;28;19930;-69
2022/04/02 15:49:24;;;;;;;;;;;;;;;;;;5012138;28;20448;-69
2022/04/02 15:51:50;;;;;;;;;;;;;;;;;;5009844;28;19929;-69
2022/04/02 15:54:16;;;;;;;;;;;;;;;;;;5012210;28;19937;-68
2022/04/02 15:56:42;;;;;;;;;;;;;;;;;;5014931;28;19929;-68
2022/04/02 15:59:08;;;;;;;;;;;;;;;;;;5014675;28;19936;-70
2022/04/02 16:01:34;;;;;;;;;;;;;;;;;;5010382;28;20036;-70
2022/04/02 16:04:00;;;;;;;;;;;;;;;;;;5008688;28;19940;-68
2022/04/02 16:06:27;;;;;;;;;;;;;;;;;;5011078;28;19929;-68
2022/04/02 16:08:54;;;;;;;;;;;;;;;;;;5021149;28;19929;-67
2022/04/02 16:11:20;;;;;;;;;;;;;;;;;;5012823;28;19929;-68
2022/04/02 16:13:47;;;;;;;;;;;;;;;;;;5019050;28;19933;-69
2022/04/02 16:16:13;;;;;;;;;;;;;;;;;;5011415;28;20302;-69
2022/04/02 16:18:40;;;;;;;;;;;;;;;;;;5012031;28;19930;-69
2022/04/02 16:21:08;;;;;;;;;;;;;;;;;;5011380;28;19976;-69
2022/04/02 16:23:34;;;;;;;;;;;;;;;;;;5008673;28;19932;-69
2022/04/02 16:26:00;;;;;;;;;;;;;;;;;;5008275;28;19929;-69
2022/04/02 16:28:27;;;;;;;;;;;;;;;;;;5006873;28;19926;-68
2022/04/02 16:30:53;;;;;;;;;;;;;;;;;;5021693;28;19931;-68
2022/04/02 16:33:19;;;;;;;;;;;;;;;;;;5025091;28;19926;-69
2022/04/02 16:35:45;;;;;;;;;;;;;;;;;;5014461;28;20298;-69
2022/04/02 16:38:11;;;;;;;;;;;;;;;;;;5013239;28;20446;-68
2022/04/02 16:40:38;;;;;;;;;;;;;;;;;;5010824;28;19926;-68
2022/04/02 16:43:04;;;;;;;;;;;;;;;;;;5008340;28;20147;-69
2022/04/02 16:45:30;;;;;;;;;;;;;;;;;;5015711;28;19933;-70
2022/04/02 16:47:56;;;;;;;;;;;;;;;;;;5010616;28;19976;-71